Time;durP1;ratioP1;P1;durP2;ratioP2;P2;SDS_P1;SDS_P2;PMS_P1;PMS_P2;Temp;Humidity;BMP_temperature;BMP_pressure;BME280_temperature;BME280_humidity;BME280_pressure;Samples;Min_cycle;Max_cycle;Signal;HPM_P1;HPM_P2
2022/12/23 00:00:17;;;;;;;12.63;6.95;;;;;;;;;;5067887;28;20062;-80
2022/12/23 00:02:42;;;;;;;14.52;7.00;;;;;;;;;;5069730;28;20415;-80
2022/12/23 00:05:08;;;;;;;15.77;6.93;;;;;;;;;;5068971;28;20024;-80
2022/12/23 00:07:33;;;;;;;13.27;6.63;;;;;;;;;;5067761;28;20485;-78
2022/12/23 00:09:59;;;;;;;19.30;7.15;;;;;;;;;;5069671;28;20440;-80
2022/12/23 00:15:09;;;;;;;15.75;6.82;;;;;;;;;;5066087;28;20035;-80
2022/12/23 00:17:39;;;;;;;15.50;6.35;;;;;;;;;;5067726;28;20029;-80
2022/12/23 00:20:05;;;;;;;20.27;6.60;;;;;;;;;;5065287;28;20361;-79
2022/12/23 00:23:13;;;;;;;14.18;6.00;;;;;;;;;;5063033;28;20445;-80
2022/12/23 00:25:19;;;;;;;12.07;5.75;;;;;;;;;;5064892;28;20044;-80
2022/12/23 00:28:00;;;;;;;14.25;6.40;;;;;;;;;;5066351;28;20045;-80
2022/12/23 00:30:26;;;;;;;14.40;6.05;;;;;;;;;;5060980;28;20032;-80
2022/12/23 00:32:52;;;;;;;14.45;6.65;;;;;;;;;;5064980;28;20027;-79
2022/12/23 00:35:17;;;;;;;16.02;6.18;;;;;;;;;;5062302;28;20028;-80
2022/12/23 00:37:42;;;;;;;18.23;5.80;;;;;;;;;;5062414;28;21893;-79
2022/12/23 00:42:55;;;;;;;11.80;6.03;;;;;;;;;;5064675;28;20067;-80
2022/12/23 00:45:21;;;;;;;13.40;5.53;;;;;;;;;;5068081;28;20024;-80
2022/12/23 00:50:34;;;;;;;17.70;6.78;;;;;;;;;;5067854;28;20066;-79
2022/12/23 00:52:59;;;;;;;14.77;5.53;;;;;;;;;;5070494;28;20037;-80
2022/12/23 00:55:24;;;;;;;13.20;5.95;;;;;;;;;;5071349;28;20051;-80
2022/12/23 00:57:50;;;;;;;12.95;6.38;;;;;;;;;;5072890;28;20025;-80
2022/12/23 01:00:16;;;;;;;10.15;5.95;;;;;;;;;;5070636;28;20487;-80
2022/12/23 01:05:37;;;;;;;13.45;6.32;;;;;;;;;;5062080;28;20559;-80
2022/12/23 01:08:09;;;;;;;16.15;6.47;;;;;;;;;;5060988;28;20556;-80
2022/12/23 01:10:39;;;;;;;15.00;7.20;;;;;;;;;;5063789;28;20035;-80
2022/12/23 01:13:05;;;;;;;14.57;7.78;;;;;;;;;;5071295;28;20494;-79
2022/12/23 01:15:31;;;;;;;14.40;7.68;;;;;;;;;;5062360;28;20036;-79
2022/12/23 01:17:56;;;;;;;11.73;7.30;;;;;;;;;;5069981;28;20020;-80
2022/12/23 01:20:23;;;;;;;12.77;7.60;;;;;;;;;;5066761;28;20487;-80
2022/12/23 01:22:48;;;;;;;15.35;7.60;;;;;;;;;;5069174;28;20024;-80
2022/12/23 01:25:14;;;;;;;15.18;7.22;;;;;;;;;;5067403;28;20574;-80
2022/12/23 01:27:39;;;;;;;16.48;8.32;;;;;;;;;;5069438;28;20067;-80
2022/12/23 01:30:05;;;;;;;12.98;7.55;;;;;;;;;;5065757;28;20029;-80
2022/12/23 01:32:31;;;;;;;14.20;7.47;;;;;;;;;;5070415;28;20403;-80
2022/12/23 01:34:56;;;;;;;13.38;7.38;;;;;;;;;;5067125;28;20123;-80
2022/12/23 01:37:22;;;;;;;15.55;7.75;;;;;;;;;;5070491;28;20024;-80
2022/12/23 01:39:47;;;;;;;16.50;7.57;;;;;;;;;;5060045;28;20115;-79
2022/12/23 01:45:13;;;;;;;19.20;8.05;;;;;;;;;;5061150;28;20028;-80
2022/12/23 01:47:55;;;;;;;18.10;8.23;;;;;;;;;;5063888;28;20404;-80
2022/12/23 01:50:33;;;;;;;17.52;8.50;;;;;;;;;;5063665;28;20127;-80
2022/12/23 01:53:17;;;;;;;17.75;8.57;;;;;;;;;;5069329;28;20162;-79
2022/12/23 01:55:52;;;;;;;16.15;8.30;;;;;;;;;;5064956;28;20657;-80
2022/12/23 01:58:23;;;;;;;17.23;7.60;;;;;;;;;;5062463;28;20040;-79
2022/12/23 02:03:41;;;;;;;16.45;7.85;;;;;;;;;;5063284;28;20024;-80
2022/12/23 02:09:16;;;;;;;14.43;7.38;;;;;;;;;;5061027;28;20102;-80
2022/12/23 02:11:56;;;;;;;15.35;7.88;;;;;;;;;;5056911;28;20039;-80
2022/12/23 02:17:37;;;;;;;13.55;7.68;;;;;;;;;;5062558;28;20059;-80
2022/12/23 02:20:09;;;;;;;14.82;7.57;;;;;;;;;;5069003;28;20017;-80
2022/12/23 02:22:59;;;;;;;14.43;7.28;;;;;;;;;;5067395;28;20056;-79
2022/12/23 02:25:35;;;;;;;14.18;7.45;;;;;;;;;;5067031;28;20028;-80
2022/12/23 02:28:49;;;;;;;13.30;7.25;;;;;;;;;;5065544;28;20025;-80
2022/12/23 02:31:20;;;;;;;13.85;6.70;;;;;;;;;;5067772;28;20037;-80
2022/12/23 02:33:49;;;;;;;14.55;6.75;;;;;;;;;;5084840;28;20399;-80
2022/12/23 02:36:45;;;;;;;11.15;5.95;;;;;;;;;;5062324;28;20055;-80
2022/12/23 02:39:21;;;;;;;10.05;6.22;;;;;;;;;;5068880;28;20500;-80
2022/12/23 02:41:56;;;;;;;12.43;6.55;;;;;;;;;;5068216;28;20037;-79
2022/12/23 02:44:44;;;;;;;10.80;6.40;;;;;;;;;;5064605;28;20028;-78
2022/12/23 02:47:14;;;;;;;10.98;6.43;;;;;;;;;;5063665;28;20503;-79
2022/12/23 02:49:44;;;;;;;11.05;5.65;;;;;;;;;;5067435;28;20554;-80
2022/12/23 02:52:13;;;;;;;11.38;5.85;;;;;;;;;;5068059;28;20039;-80
2022/12/23 02:54:53;;;;;;;11.85;6.43;;;;;;;;;;5061103;28;20389;-79
2022/12/23 02:57:24;;;;;;;9.93;6.10;;;;;;;;;;5055127;28;20407;-79
2022/12/23 02:59:50;;;;;;;11.65;6.65;;;;;;;;;;5062690;28;20666;-79
2022/12/23 03:02:16;;;;;;;12.45;6.22;;;;;;;;;;5064255;28;20396;-80
2022/12/23 03:04:42;;;;;;;11.23;6.10;;;;;;;;;;5058494;28;20135;-80
2022/12/23 03:07:19;;;;;;;11.68;7.25;;;;;;;;;;5068217;28;20509;-79
2022/12/23 03:09:50;;;;;;;12.15;6.90;;;;;;;;;;5066560;28;20633;-80
2022/12/23 03:12:48;;;;;;;12.73;7.13;;;;;;;;;;5062819;28;20443;-80
2022/12/23 03:15:40;;;;;;;11.77;6.35;;;;;;;;;;5060990;28;20048;-79
2022/12/23 03:18:14;;;;;;;12.38;6.90;;;;;;;;;;5061023;28;20480;-79
2022/12/23 03:20:47;;;;;;;11.25;6.70;;;;;;;;;;5065164;28;20025;-80
2022/12/23 03:23:18;;;;;;;12.75;7.20;;;;;;;;;;5058038;28;20024;-79
2022/12/23 03:26:09;;;;;;;15.38;8.02;;;;;;;;;;5061777;28;20076;-80
2022/12/23 03:28:48;;;;;;;13.93;7.07;;;;;;;;;;5059338;28;20112;-79
2022/12/23 03:31:20;;;;;;;13.27;6.72;;;;;;;;;;5066849;28;20108;-79
2022/12/23 03:33:50;;;;;;;16.52;7.72;;;;;;;;;;5065418;28;20033;-80
2022/12/23 03:36:22;;;;;;;13.55;8.05;;;;;;;;;;5066066;28;20418;-80
2022/12/23 03:38:50;;;;;;;15.38;7.43;;;;;;;;;;5060514;28;20028;-80
2022/12/23 03:41:20;;;;;;;12.40;7.53;;;;;;;;;;5060628;28;20119;-80
2022/12/23 03:43:54;;;;;;;14.32;7.47;;;;;;;;;;5061377;28;20029;-79
2022/12/23 03:46:31;;;;;;;13.32;6.85;;;;;;;;;;5066034;28;20024;-80
2022/12/23 03:49:04;;;;;;;14.55;6.97;;;;;;;;;;5064293;28;20162;-78
2022/12/23 03:51:49;;;;;;;11.25;6.65;;;;;;;;;;5061290;28;20077;-80
2022/12/23 03:54:20;;;;;;;14.18;7.55;;;;;;;;;;5057525;28;20423;-79
2022/12/23 03:56:52;;;;;;;11.63;6.65;;;;;;;;;;5064597;28;20033;-80
2022/12/23 03:59:25;;;;;;;12.65;6.65;;;;;;;;;;5060488;28;20488;-80
2022/12/23 04:02:09;;;;;;;11.43;6.07;;;;;;;;;;5065243;28;20029;-80
2022/12/23 04:05:00;;;;;;;11.25;6.43;;;;;;;;;;5061995;28;20025;-80
2022/12/23 04:07:40;;;;;;;12.43;6.38;;;;;;;;;;5059015;28;20111;-79
2022/12/23 04:10:07;;;;;;;11.57;6.28;;;;;;;;;;5058474;28;20040;-79
2022/12/23 04:12:32;;;;;;;10.65;6.15;;;;;;;;;;5068581;28;20028;-80
2022/12/23 04:14:58;;;;;;;12.98;6.82;;;;;;;;;;5065604;28;20127;-79
2022/12/23 04:17:23;;;;;;;10.73;6.45;;;;;;;;;;5063048;28;20108;-79
2022/12/23 04:19:50;;;;;;;10.48;5.63;;;;;;;;;;5065979;28;20036;-80
2022/12/23 04:22:18;;;;;;;12.13;6.22;;;;;;;;;;5065585;28;20043;-79
2022/12/23 04:24:44;;;;;;;10.85;6.38;;;;;;;;;;5066112;28;20667;-78
2022/12/23 04:27:13;;;;;;;12.18;6.78;;;;;;;;;;5070566;28;20444;-79
2022/12/23 04:29:38;;;;;;;13.35;6.57;;;;;;;;;;5063949;28;20024;-80
2022/12/23 04:32:04;;;;;;;10.48;6.10;;;;;;;;;;5069179;28;20025;-79
2022/12/23 04:34:29;;;;;;;14.45;6.45;;;;;;;;;;5068706;28;20056;-79
2022/12/23 04:36:55;;;;;;;12.55;6.25;;;;;;;;;;5069089;28;20103;-79
2022/12/23 04:39:20;;;;;;;10.80;6.00;;;;;;;;;;5065263;28;20016;-79
2022/12/23 04:41:46;;;;;;;11.82;6.43;;;;;;;;;;5064494;28;20025;-79
2022/12/23 04:44:12;;;;;;;11.15;6.13;;;;;;;;;;5069794;28;20017;-79
2022/12/23 04:46:37;;;;;;;10.55;6.10;;;;;;;;;;5066818;28;20028;-80
2022/12/23 04:49:02;;;;;;;12.13;6.20;;;;;;;;;;5068346;28;20358;-80
2022/12/23 04:51:28;;;;;;;12.63;7.05;;;;;;;;;;5067644;28;20111;-79
2022/12/23 04:53:53;;;;;;;10.85;6.00;;;;;;;;;;5069961;28;20152;-80
2022/12/23 04:56:18;;;;;;;12.20;7.00;;;;;;;;;;5067485;28;20445;-80
2022/12/23 04:58:44;;;;;;;12.60;6.05;;;;;;;;;;5062457;28;20039;-80
2022/12/23 05:01:10;;;;;;;12.32;6.72;;;;;;;;;;5063996;28;20033;-79
2022/12/23 05:03:36;;;;;;;11.18;5.93;;;;;;;;;;5068402;28;20031;-80
2022/12/23 05:06:02;;;;;;;13.00;6.72;;;;;;;;;;5063717;28;20103;-80
2022/12/23 05:08:28;;;;;;;13.40;7.10;;;;;;;;;;5071175;28;20028;-79
2022/12/23 05:10:54;;;;;;;10.95;5.95;;;;;;;;;;5067757;28;20373;-80
2022/12/23 05:13:20;;;;;;;11.88;6.80;;;;;;;;;;5068423;28;20024;-79
2022/12/23 05:15:48;;;;;;;13.00;6.18;;;;;;;;;;5066397;28;20028;-80
2022/12/23 05:18:14;;;;;;;10.45;6.20;;;;;;;;;;5074749;28;20021;-80
2022/12/23 05:20:39;;;;;;;15.02;7.18;;;;;;;;;;5066924;28;20027;-80
2022/12/23 05:23:04;;;;;;;11.65;6.85;;;;;;;;;;5062574;28;20037;-80
2022/12/23 05:25:36;;;;;;;12.85;6.93;;;;;;;;;;5062474;28;20047;-80
2022/12/23 05:28:02;;;;;;;11.60;6.60;;;;;;;;;;5065135;28;20033;-80
2022/12/23 05:30:28;;;;;;;11.77;6.40;;;;;;;;;;5067394;28;20076;-80
2022/12/23 05:32:54;;;;;;;12.43;6.72;;;;;;;;;;5062610;28;20609;-79
2022/12/23 05:35:21;;;;;;;11.95;6.22;;;;;;;;;;5064098;28;20024;-80
2022/12/23 05:37:46;;;;;;;13.95;6.00;;;;;;;;;;5062635;28;20032;-80
2022/12/23 05:40:12;;;;;;;9.95;5.97;;;;;;;;;;5059241;28;20366;-79
2022/12/23 05:42:38;;;;;;;12.38;6.15;;;;;;;;;;5060254;28;20032;-80
2022/12/23 05:45:03;;;;;;;13.48;6.65;;;;;;;;;;5068867;28;20056;-80
2022/12/23 05:47:29;;;;;;;10.95;5.97;;;;;;;;;;5064993;28;20365;-79
2022/12/23 05:49:54;;;;;;;12.73;6.32;;;;;;;;;;5067427;28;20036;-80
2022/12/23 05:52:19;;;;;;;14.07;7.00;;;;;;;;;;5064881;28;20460;-79
2022/12/23 05:54:45;;;;;;;14.57;7.32;;;;;;;;;;5064304;28;20093;-79
2022/12/23 05:57:11;;;;;;;13.43;6.97;;;;;;;;;;5068187;28;20028;-79
2022/12/23 05:59:36;;;;;;;11.55;6.45;;;;;;;;;;5062801;28;20039;-79
2022/12/23 06:02:01;;;;;;;15.20;7.35;;;;;;;;;;5066523;28;20434;-79
2022/12/23 06:04:27;;;;;;;12.55;6.75;;;;;;;;;;5057975;28;20028;-78
2022/12/23 06:06:52;;;;;;;13.23;6.03;;;;;;;;;;5065167;28;20043;-80
2022/12/23 06:09:18;;;;;;;10.40;6.18;;;;;;;;;;5065561;28;20374;-79
2022/12/23 06:11:43;;;;;;;10.75;6.18;;;;;;;;;;5064655;28;20028;-80
2022/12/23 06:14:09;;;;;;;11.13;6.53;;;;;;;;;;5076221;28;20028;-80
2022/12/23 06:16:34;;;;;;;9.73;5.75;;;;;;;;;;5065397;28;20400;-79
2022/12/23 06:19:00;;;;;;;11.23;5.93;;;;;;;;;;5065371;28;20017;-80
2022/12/23 06:21:25;;;;;;;11.55;6.15;;;;;;;;;;5057481;28;20032;-79
2022/12/23 06:23:51;;;;;;;10.07;5.28;;;;;;;;;;5057889;28;20036;-79
2022/12/23 06:26:16;;;;;;;9.63;5.00;;;;;;;;;;5056592;28;20078;-80
2022/12/23 06:28:42;;;;;;;9.20;5.00;;;;;;;;;;5058219;28;20032;-79
2022/12/23 06:31:07;;;;;;;9.77;5.50;;;;;;;;;;5063598;28;20166;-79
2022/12/23 06:33:32;;;;;;;8.48;4.72;;;;;;;;;;5065085;28;20025;-79
2022/12/23 06:35:58;;;;;;;8.98;4.82;;;;;;;;;;5061869;28;20025;-80
2022/12/23 06:38:23;;;;;;;7.85;4.50;;;;;;;;;;5063161;28;20032;-80
2022/12/23 06:40:48;;;;;;;9.35;4.93;;;;;;;;;;5063799;28;20024;-80
2022/12/23 06:43:14;;;;;;;9.40;4.72;;;;;;;;;;5065591;28;20032;-79
2022/12/23 06:45:40;;;;;;;9.90;5.05;;;;;;;;;;5064878;28;20039;-80
2022/12/23 06:48:05;;;;;;;8.68;4.93;;;;;;;;;;5065201;28;20412;-79
2022/12/23 06:50:31;;;;;;;9.35;4.78;;;;;;;;;;5067683;28;20110;-79
2022/12/23 06:52:56;;;;;;;9.48;4.50;;;;;;;;;;5069671;28;20028;-79
2022/12/23 06:55:22;;;;;;;11.85;5.63;;;;;;;;;;5061460;28;20123;-79
2022/12/23 06:57:47;;;;;;;9.45;5.15;;;;;;;;;;5069782;28;20035;-80
2022/12/23 07:00:13;;;;;;;9.30;4.85;;;;;;;;;;5063234;28;20029;-80
2022/12/23 07:02:39;;;;;;;8.88;4.40;;;;;;;;;;5060581;28;20126;-80
2022/12/23 07:05:05;;;;;;;8.88;5.03;;;;;;;;;;5058891;28;20877;-80
2022/12/23 07:07:32;;;;;;;9.35;5.50;;;;;;;;;;5060075;28;20035;-80
2022/12/23 07:09:57;;;;;;;11.32;5.43;;;;;;;;;;5057007;28;20413;-80
2022/12/23 07:12:23;;;;;;;11.00;5.47;;;;;;;;;;5052335;28;20117;-79
2022/12/23 07:14:48;;;;;;;9.40;5.32;;;;;;;;;;5050582;28;20033;-80
2022/12/23 07:17:13;;;;;;;11.40;5.18;;;;;;;;;;5053764;28;20051;-80
2022/12/23 07:19:40;;;;;;;10.57;5.13;;;;;;;;;;5060537;28;20028;-79
2022/12/23 07:22:07;;;;;;;10.98;5.43;;;;;;;;;;5053166;28;20040;-79
2022/12/23 07:24:32;;;;;;;9.95;5.72;;;;;;;;;;5059145;28;20466;-80
2022/12/23 07:26:57;;;;;;;12.93;6.03;;;;;;;;;;5059380;28;20040;-78
2022/12/23 07:29:23;;;;;;;11.73;6.13;;;;;;;;;;5059497;28;20040;-79
2022/12/23 07:31:48;;;;;;;12.05;6.55;;;;;;;;;;5056715;28;20476;-79
2022/12/23 07:34:13;;;;;;;10.40;5.57;;;;;;;;;;5058466;28;20033;-78
2022/12/23 07:36:39;;;;;;;11.00;5.35;;;;;;;;;;5057102;28;20337;-80
2022/12/23 07:39:04;;;;;;;10.00;5.93;;;;;;;;;;5058175;28;20032;-80
2022/12/23 07:41:30;;;;;;;8.45;5.07;;;;;;;;;;5058707;28;20032;-79
2022/12/23 07:43:55;;;;;;;10.57;5.22;;;;;;;;;;5063656;28;20553;-79
2022/12/23 07:46:21;;;;;;;17.27;7.10;;;;;;;;;;5068436;28;20040;-80
2022/12/23 07:48:46;;;;;;;11.75;6.18;;;;;;;;;;5067249;28;20052;-80
2022/12/23 07:51:12;;;;;;;14.77;8.05;;;;;;;;;;5071578;28;20032;-80
2022/12/23 07:53:37;;;;;;;18.63;8.70;;;;;;;;;;5064209;28;20031;-79
2022/12/23 07:56:03;;;;;;;12.48;6.65;;;;;;;;;;5069574;28;20024;-80
2022/12/23 07:58:28;;;;;;;10.60;6.15;;;;;;;;;;5066226;28;20111;-80
2022/12/23 08:01:02;;;;;;;11.30;6.10;;;;;;;;;;5067599;28;20020;-80
2022/12/23 08:03:27;;;;;;;10.63;6.00;;;;;;;;;;5057841;28;20029;-80
2022/12/23 08:06:04;;;;;;;10.80;6.18;;;;;;;;;;5058251;28;20031;-80
2022/12/23 08:08:31;;;;;;;12.82;6.82;;;;;;;;;;5059729;28;20033;-79
2022/12/23 08:10:58;;;;;;;15.70;8.00;;;;;;;;;;5056422;28;20063;-80
2022/12/23 08:13:24;;;;;;;11.93;6.63;;;;;;;;;;5063017;28;20625;-80
2022/12/23 08:15:57;;;;;;;11.80;6.63;;;;;;;;;;5062419;28;20025;-80
2022/12/23 08:18:23;;;;;;;15.15;7.72;;;;;;;;;;5064103;28;20103;-80
2022/12/23 08:20:55;;;;;;;17.35;8.35;;;;;;;;;;5062695;28;20099;-78
2022/12/23 08:23:20;;;;;;;15.83;9.07;;;;;;;;;;5060501;28;20115;-80
2022/12/23 08:25:46;;;;;;;16.33;8.48;;;;;;;;;;5060097;28;20129;-80
2022/12/23 08:28:11;;;;;;;16.92;7.80;;;;;;;;;;5063170;28;20388;-79
2022/12/23 08:30:36;;;;;;;18.00;8.43;;;;;;;;;;5062132;28;20032;-80
2022/12/23 08:33:02;;;;;;;20.77;9.43;;;;;;;;;;5061048;28;20094;-79
2022/12/23 08:35:27;;;;;;;19.63;9.18;;;;;;;;;;5063753;28;20503;-80
2022/12/23 08:37:53;;;;;;;17.02;8.50;;;;;;;;;;5058797;28;20021;-80
2022/12/23 08:40:18;;;;;;;14.40;8.25;;;;;;;;;;5052550;28;20486;-79
2022/12/23 08:42:43;;;;;;;16.77;8.60;;;;;;;;;;5063458;28;20024;-80
2022/12/23 08:45:09;;;;;;;19.88;9.65;;;;;;;;;;5070104;28;20480;-79
2022/12/23 08:47:34;;;;;;;18.40;9.15;;;;;;;;;;5066144;28;20032;-80
2022/12/23 08:50:00;;;;;;;20.17;10.07;;;;;;;;;;5069178;28;20089;-80
2022/12/23 08:52:25;;;;;;;20.73;10.23;;;;;;;;;;5062120;28;20482;-80
2022/12/23 08:54:50;;;;;;;18.75;9.93;;;;;;;;;;5066805;28;20020;-80
2022/12/23 08:57:16;;;;;;;20.65;10.30;;;;;;;;;;5066192;28;20420;-80
2022/12/23 08:59:41;;;;;;;21.45;9.45;;;;;;;;;;5070248;28;20028;-80
2022/12/23 09:02:10;;;;;;;23.40;10.18;;;;;;;;;;5063761;28;20039;-80
2022/12/23 09:04:35;;;;;;;19.25;10.73;;;;;;;;;;5069095;28;20081;-79
2022/12/23 09:07:01;;;;;;;21.05;10.57;;;;;;;;;;5063557;28;20036;-80
2022/12/23 09:09:26;;;;;;;21.33;10.40;;;;;;;;;;5068967;28;20052;-80
2022/12/23 09:11:51;;;;;;;24.42;11.02;;;;;;;;;;5070696;28;21566;-80
2022/12/23 09:14:17;;;;;;;24.83;10.70;;;;;;;;;;5061429;28;20376;-80
2022/12/23 09:16:43;;;;;;;23.52;12.00;;;;;;;;;;5065262;28;20075;-80
2022/12/23 09:19:08;;;;;;;26.98;11.77;;;;;;;;;;5069438;28;20074;-80
2022/12/23 09:21:34;;;;;;;24.27;11.88;;;;;;;;;;5063444;28;20025;-79
2022/12/23 09:23:59;;;;;;;26.65;13.05;;;;;;;;;;5070322;28;20111;-80
2022/12/23 09:26:27;;;;;;;25.50;12.77;;;;;;;;;;5064585;28;20605;-78
2022/12/23 09:28:53;;;;;;;27.25;12.73;;;;;;;;;;5064323;28;20054;-80
2022/12/23 09:31:19;;;;;;;26.67;12.63;;;;;;;;;;5066860;28;20029;-80
2022/12/23 09:33:46;;;;;;;25.85;13.00;;;;;;;;;;5067845;28;20037;-80
2022/12/23 09:36:12;;;;;;;25.17;12.35;;;;;;;;;;5069510;28;20062;-80
2022/12/23 09:38:37;;;;;;;26.42;12.85;;;;;;;;;;5067464;28;20411;-80
2022/12/23 09:41:16;;;;;;;26.88;12.90;;;;;;;;;;5072237;28;20095;-80
2022/12/23 09:43:52;;;;;;;29.60;13.48;;;;;;;;;;5081206;28;20056;-81
2022/12/23 09:46:24;;;;;;;28.92;13.15;;;;;;;;;;5069094;28;20468;-80
2022/12/23 09:49:02;;;;;;;27.65;12.95;;;;;;;;;;5069701;28;20540;-80
2022/12/23 09:51:29;;;;;;;29.33;13.55;;;;;;;;;;5063775;28;20074;-80
2022/12/23 09:54:13;;;;;;;35.08;15.82;;;;;;;;;;5063631;28;20020;-80
2022/12/23 09:56:51;;;;;;;38.95;14.20;;;;;;;;;;5063478;28;20086;-79
2022/12/23 09:59:53;;;;;;;32.63;14.40;;;;;;;;;;5078633;28;20036;-80
2022/12/23 10:02:29;;;;;;;30.45;14.25;;;;;;;;;;5063300;28;20433;-80
2022/12/23 10:05:13;;;;;;;29.33;14.23;;;;;;;;;;5064925;28;20024;-80
2022/12/23 10:07:47;;;;;;;34.78;15.23;;;;;;;;;;5063305;28;20028;-80
2022/12/23 10:10:18;;;;;;;32.72;14.38;;;;;;;;;;5067439;28;20476;-80
2022/12/23 10:12:47;;;;;;;28.85;13.75;;;;;;;;;;5067773;28;20024;-80
2022/12/23 10:15:21;;;;;;;29.45;13.30;;;;;;;;;;5066395;28;20497;-80
2022/12/23 10:17:50;;;;;;;32.15;13.82;;;;;;;;;;5070101;28;20031;-80
2022/12/23 10:20:30;;;;;;;31.08;14.15;;;;;;;;;;5063332;28;20396;-80
2022/12/23 10:22:56;;;;;;;25.75;12.40;;;;;;;;;;5068518;28;20653;-80
2022/12/23 10:25:33;;;;;;;29.95;13.43;;;;;;;;;;5067608;28;20028;-80
2022/12/23 10:27:59;;;;;;;33.33;12.68;;;;;;;;;;5066211;28;20384;-80
2022/12/23 10:30:26;;;;;;;24.08;12.32;;;;;;;;;;5061434;28;20024;-80
2022/12/23 10:32:51;;;;;;;23.75;11.50;;;;;;;;;;5061422;28;20429;-79
2022/12/23 10:35:38;;;;;;;25.77;11.63;;;;;;;;;;5066427;28;20024;-81
2022/12/23 10:38:10;;;;;;;28.63;11.18;;;;;;;;;;5065338;28;20075;-80
2022/12/23 10:40:53;;;;;;;22.70;10.57;;;;;;;;;;5065893;28;20021;-80
2022/12/23 10:43:29;;;;;;;21.02;9.85;;;;;;;;;;5065997;28;20020;-81
2022/12/23 10:46:18;;;;;;;19.17;9.73;;;;;;;;;;5067140;28;20048;-80
2022/12/23 10:49:06;;;;;;;21.92;10.00;;;;;;;;;;5062625;28;20025;-80
2022/12/23 10:51:40;;;;;;;24.30;9.98;;;;;;;;;;5055331;28;20090;-79
2022/12/23 10:54:11;;;;;;;22.90;10.15;;;;;;;;;;5043009;28;20028;-80
2022/12/23 10:56:37;;;;;;;18.55;9.75;;;;;;;;;;5065672;28;21760;-78
2022/12/23 10:59:06;;;;;;;19.25;9.07;;;;;;;;;;5064378;28;20032;-80
2022/12/23 11:01:32;;;;;;;14.35;8.27;;;;;;;;;;5060443;28;20214;-80
2022/12/23 11:04:13;;;;;;;17.52;8.95;;;;;;;;;;5061822;28;20028;-80
2022/12/23 11:06:46;;;;;;;19.10;8.45;;;;;;;;;;5066004;28;20048;-80
2022/12/23 11:09:23;;;;;;;15.32;7.82;;;;;;;;;;5067288;28;20115;-80
2022/12/23 11:11:59;;;;;;;15.57;8.23;;;;;;;;;;5064670;28;20025;-80
2022/12/23 11:14:50;;;;;;;17.00;8.35;;;;;;;;;;5066038;28;20024;-80
2022/12/23 11:17:21;;;;;;;14.70;7.43;;;;;;;;;;5065218;28;20081;-79
2022/12/23 11:20:05;;;;;;;15.02;7.38;;;;;;;;;;5065815;28;20020;-80
2022/12/23 11:22:30;;;;;;;15.20;7.13;;;;;;;;;;5069649;28;20032;-80
2022/12/23 11:25:25;;;;;;;15.48;7.65;;;;;;;;;;5065064;28;20070;-80
2022/12/23 11:28:01;;;;;;;17.77;8.25;;;;;;;;;;5058936;28;20147;-81
2022/12/23 11:30:28;;;;;;;15.45;8.20;;;;;;;;;;5069288;28;20035;-80
2022/12/23 11:32:54;;;;;;;16.70;8.15;;;;;;;;;;5064517;28;20028;-80
2022/12/23 11:35:28;;;;;;;16.88;7.88;;;;;;;;;;5071206;28;20047;-81
2022/12/23 11:37:54;;;;;;;15.30;7.97;;;;;;;;;;5068432;28;20599;-80
2022/12/23 11:40:37;;;;;;;15.40;7.93;;;;;;;;;;5066055;28;20020;-79
2022/12/23 11:43:13;;;;;;;16.30;7.95;;;;;;;;;;5067552;28;20029;-80
2022/12/23 11:45:38;;;;;;;15.55;7.88;;;;;;;;;;5066135;28;20025;-79
2022/12/23 11:48:05;;;;;;;15.55;7.80;;;;;;;;;;5062059;28;20047;-79
2022/12/23 11:50:39;;;;;;;14.43;6.93;;;;;;;;;;5064606;28;20027;-80
2022/12/23 11:53:19;;;;;;;16.98;7.70;;;;;;;;;;5068015;28;20059;-78
2022/12/23 11:55:59;;;;;;;16.13;8.00;;;;;;;;;;5065481;28;20036;-80
2022/12/23 11:58:27;;;;;;;14.93;7.72;;;;;;;;;;5065917;28;20036;-80
2022/12/23 12:00:58;;;;;;;16.63;7.88;;;;;;;;;;5068028;28;20528;-80
2022/12/23 12:03:34;;;;;;;15.57;7.85;;;;;;;;;;5058654;28;20020;-80
2022/12/23 12:06:05;;;;;;;16.33;7.63;;;;;;;;;;5069487;28;20522;-80
2022/12/23 12:08:37;;;;;;;15.82;7.55;;;;;;;;;;5068876;28;20542;-80
2022/12/23 12:11:25;;;;;;;17.42;8.50;;;;;;;;;;5066841;28;20178;-80
2022/12/23 12:13:57;;;;;;;17.63;7.95;;;;;;;;;;5069532;28;20031;-80
2022/12/23 12:16:37;;;;;;;14.73;8.23;;;;;;;;;;5057961;28;20036;-79
2022/12/23 12:19:09;;;;;;;15.15;9.20;;;;;;;;;;5062461;28;20024;-80
2022/12/23 12:21:37;;;;;;;15.25;8.27;;;;;;;;;;5062466;28;20032;-79
2022/12/23 12:24:24;;;;;;;15.80;9.30;;;;;;;;;;5052892;28;20085;-79
2022/12/23 12:26:52;;;;;;;13.75;6.75;;;;;;;;;;5058692;28;20075;-79
2022/12/23 12:29:49;;;;;;;14.75;6.93;;;;;;;;;;5056791;28;20113;-79
2022/12/23 12:32:21;;;;;;;12.10;7.25;;;;;;;;;;5052843;28;20041;-78
2022/12/23 12:34:46;;;;;;;14.37;7.00;;;;;;;;;;5060791;28;20055;-78
2022/12/23 12:37:18;;;;;;;14.70;8.05;;;;;;;;;;5054862;28;20025;-78
2022/12/23 12:40:24;;;;;;;16.65;7.72;;;;;;;;;;5060862;28;20059;-79
2022/12/23 12:43:00;;;;;;;15.57;7.43;;;;;;;;;;5059576;28;20039;-79
2022/12/23 12:45:49;;;;;;;13.15;6.85;;;;;;;;;;5061957;28;20131;-78
2022/12/23 12:48:31;;;;;;;11.48;6.07;;;;;;;;;;5058335;28;20059;-79
2022/12/23 12:51:14;;;;;;;10.73;6.20;;;;;;;;;;5058943;28;20485;-79
2022/12/23 12:53:51;;;;;;;13.40;6.43;;;;;;;;;;5057567;28;20034;-79
2022/12/23 12:56:48;;;;;;;10.98;5.95;;;;;;;;;;5054645;28;20043;-80
2022/12/23 12:59:23;;;;;;;10.27;5.80;;;;;;;;;;5052354;28;20064;-79
2022/12/23 13:02:19;;;;;;;11.30;6.20;;;;;;;;;;5055596;28;20032;-79
2022/12/23 13:05:07;;;;;;;11.55;6.57;;;;;;;;;;5046556;28;20516;-80
2022/12/23 13:07:56;;;;;;;12.70;5.93;;;;;;;;;;5050075;28;20115;-80
2022/12/23 13:10:50;;;;;;;13.00;6.35;;;;;;;;;;5050200;28;20484;-80
2022/12/23 13:13:38;;;;;;;10.88;6.55;;;;;;;;;;5045665;28;20028;-79
2022/12/23 13:16:15;;;;;;;12.52;6.32;;;;;;;;;;5045954;28;20037;-79
2022/12/23 13:18:59;;;;;;;10.38;6.13;;;;;;;;;;5042400;28;20503;-79
2022/12/23 13:21:46;;;;;;;13.05;6.82;;;;;;;;;;5046380;28;20039;-79
2022/12/23 13:24:37;;;;;;;13.07;6.45;;;;;;;;;;5061713;28;20048;-79
2022/12/23 13:27:12;;;;;;;13.07;6.78;;;;;;;;;;5052129;28;20524;-79
2022/12/23 13:30:12;;;;;;;12.07;6.18;;;;;;;;;;5048507;28;20033;-79
2022/12/23 13:33:15;;;;;;;13.73;6.13;;;;;;;;;;5044909;28;20032;-79
2022/12/23 13:35:52;;;;;;;9.90;5.87;;;;;;;;;;5051604;28;20036;-80
2022/12/23 13:38:39;;;;;;;11.70;5.95;;;;;;;;;;5048875;28;20047;-79
2022/12/23 13:41:14;;;;;;;10.48;5.70;;;;;;;;;;5050720;28;20116;-79
2022/12/23 13:43:50;;;;;;;10.95;5.70;;;;;;;;;;5054887;28;20357;-82
2022/12/23 13:46:42;;;;;;;9.70;5.53;;;;;;;;;;5050586;28;20024;-80
2022/12/23 13:49:26;;;;;;;10.98;5.55;;;;;;;;;;5053026;28;20036;-80
2022/12/23 13:51:56;;;;;;;9.05;5.55;;;;;;;;;;5055681;28;20043;-80
2022/12/23 13:54:26;;;;;;;10.27;5.18;;;;;;;;;;5056169;28;20036;-80
2022/12/23 13:57:07;;;;;;;8.48;5.22;;;;;;;;;;5053107;28;20124;-79
2022/12/23 13:59:54;;;;;;;10.18;5.13;;;;;;;;;;5057728;28;20020;-80
2022/12/23 14:02:34;;;;;;;9.73;5.10;;;;;;;;;;5050645;28;20028;-79
2022/12/23 14:05:00;;;;;;;11.45;5.43;;;;;;;;;;5052420;28;20047;-80
2022/12/23 14:07:28;;;;;;;9.23;4.95;;;;;;;;;;5054222;28;20033;-79
2022/12/23 14:10:07;;;;;;;11.70;5.28;;;;;;;;;;5052414;28;20095;-80
2022/12/23 14:12:36;;;;;;;7.43;4.32;;;;;;;;;;5058833;28;20028;-79
2022/12/23 14:15:17;;;;;;;8.05;4.80;;;;;;;;;;5061788;28;20036;-80
2022/12/23 14:18:01;;;;;;;9.25;5.40;;;;;;;;;;5060488;28;20054;-80
2022/12/23 14:20:30;;;;;;;9.63;5.03;;;;;;;;;;5061741;28;20029;-80
2022/12/23 14:23:15;;;;;;;8.40;5.03;;;;;;;;;;5059839;28;22883;-80
2022/12/23 14:26:17;;;;;;;11.18;5.82;;;;;;;;;;5060180;28;20076;-80
2022/12/23 14:28:51;;;;;;;11.70;5.85;;;;;;;;;;5046690;28;20029;-80
2022/12/23 14:31:26;;;;;;;10.77;5.75;;;;;;;;;;5054247;28;20071;-81
2022/12/23 14:33:52;;;;;;;10.88;5.68;;;;;;;;;;5060704;28;20024;-80
2022/12/23 14:36:22;;;;;;;9.23;5.65;;;;;;;;;;5065402;28;20032;-80
2022/12/23 14:39:12;;;;;;;10.70;5.80;;;;;;;;;;5053069;28;20035;-79
2022/12/23 14:41:49;;;;;;;9.05;5.45;;;;;;;;;;5057419;28;20062;-80
2022/12/23 14:44:48;;;;;;;8.80;5.63;;;;;;;;;;5063032;28;20086;-80
2022/12/23 14:47:35;;;;;;;8.18;5.05;;;;;;;;;;5060308;28;20063;-80
2022/12/23 14:50:32;;;;;;;9.48;5.53;;;;;;;;;;5072531;28;20048;-80
2022/12/23 14:53:01;;;;;;;10.32;6.22;;;;;;;;;;5064148;28;20472;-80
2022/12/23 14:55:27;;;;;;;9.30;5.05;;;;;;;;;;5055271;28;20090;-79
2022/12/23 14:58:08;;;;;;;9.07;4.60;;;;;;;;;;5065057;28;20024;-80
2022/12/23 15:00:45;;;;;;;7.53;4.85;;;;;;;;;;5060842;28;20077;-80
2022/12/23 15:03:11;;;;;;;7.18;4.30;;;;;;;;;;5066814;28;20028;-80
2022/12/23 15:05:39;;;;;;;7.82;4.70;;;;;;;;;;5067409;28;20033;-80
2022/12/23 15:08:25;;;;;;;6.25;4.07;;;;;;;;;;5069454;28;20468;-79
2022/12/23 15:10:52;;;;;;;8.85;4.45;;;;;;;;;;5063009;28;20036;-79
2022/12/23 15:13:19;;;;;;;7.60;4.53;;;;;;;;;;5067321;28;20063;-80
2022/12/23 15:15:54;;;;;;;6.78;4.20;;;;;;;;;;5066178;28;20542;-80
2022/12/23 15:18:20;;;;;;;7.63;4.40;;;;;;;;;;5066810;28;20496;-80
2022/12/23 15:21:00;;;;;;;9.40;5.28;;;;;;;;;;5064798;28;20028;-80